createdAt,value
2022-09-23T00:03:37.079Z,630
2022-09-23T00:08:55.429Z,634
2022-09-23T00:14:13.635Z,630
2022-09-23T00:19:31.823Z,630
2022-09-23T00:24:50.309Z,635
2022-09-23T00:30:08.496Z,631
2022-09-23T00:35:26.690Z,632
2022-09-23T00:40:45.262Z,629
2022-09-23T00:46:03.490Z,634
2022-09-23T00:51:21.778Z,629
2022-09-23T00:56:40.254Z,632
2022-09-23T01:01:59.028Z,632
2022-09-23T01:07:17.505Z,630
2022-09-23T01:12:35.738Z,628
2022-09-23T01:17:53.927Z,631
2022-09-23T01:23:12.457Z,631
2022-09-23T01:28:31.239Z,631
2022-09-23T01:33:49.980Z,628
2022-09-23T01:39:08.456Z,631
2022-09-23T01:44:27.077Z,627
2022-09-23T01:49:45.552Z,625
2022-09-23T01:55:04.327Z,631
2022-09-23T02:00:22.795Z,628
2022-09-23T02:05:41.361Z,629
2022-09-23T02:11:00.135Z,628
2022-09-23T02:16:18.987Z,626
2022-09-23T02:21:37.739Z,632
2022-09-23T02:26:56.488Z,630
2022-09-23T02:32:15.111Z,627
2022-09-23T02:37:33.364Z,626
2022-09-23T02:42:51.893Z,629
2022-09-23T02:48:10.124Z,625
2022-09-23T02:53:28.089Z,624
2022-09-23T02:58:46.882Z,624
2022-09-23T03:04:04.818Z,624
2022-09-23T03:09:23.037Z,625
2022-09-23T03:14:41.493Z,624
2022-09-23T03:20:00.002Z,620
2022-09-23T03:25:17.953Z,623
2022-09-23T03:30:36.437Z,626
2022-09-23T03:35:55.188Z,620
2022-09-23T03:41:13.086Z,624
2022-09-23T03:46:31.851Z,621
2022-09-23T03:51:50.081Z,618
2022-09-23T03:57:08.294Z,623
2022-09-23T04:02:26.527Z,616
2022-09-23T04:07:44.993Z,622
2022-09-23T04:13:03.202Z,624
2022-09-23T04:18:21.677Z,622
2022-09-23T04:23:40.497Z,621
2022-09-23T04:28:59.008Z,623
2022-09-23T04:34:17.375Z,625
2022-09-23T04:39:35.570Z,625
2022-09-23T04:44:54.046Z,624
2022-09-23T04:50:12.240Z,623
2022-09-23T04:55:31.035Z,625
2022-09-23T05:00:49.812Z,626
2022-09-23T05:05:54.401Z,629
2022-09-23T05:11:13.195Z,630
2022-09-23T05:16:31.191Z,626
2022-09-23T05:21:49.811Z,627
2022-09-23T05:27:08.029Z,625
2022-09-23T05:32:26.495Z,623
2022-09-23T05:37:45.002Z,620
2022-09-23T05:43:03.515Z,626
2022-09-23T05:48:21.722Z,626
2022-09-23T05:53:40.181Z,618
2022-09-23T05:58:58.408Z,618
2022-09-23T06:04:16.863Z,621
2022-09-23T06:09:36.632Z,617
2022-09-23T06:14:55.318Z,616
2022-09-23T06:20:13.784Z,616
2022-09-23T06:25:32.363Z,613
2022-09-23T06:30:50.614Z,611
2022-09-23T06:36:08.815Z,606
2022-09-23T06:41:27.280Z,606
2022-09-23T06:46:45.587Z,606
2022-09-23T06:52:04.055Z,602
2022-09-23T06:57:22.253Z,594
2022-09-23T07:02:40.608Z,594
2022-09-23T07:07:59.283Z,592
2022-09-23T07:13:17.772Z,589
2022-09-23T07:18:37.076Z,589
2022-09-23T07:23:56.027Z,588
2022-09-23T07:29:14.478Z,588
2022-09-23T07:34:33.008Z,583
2022-09-23T07:39:51.501Z,585
2022-09-23T07:45:10.230Z,578
2022-09-23T07:50:29.025Z,581
2022-09-23T07:55:47.784Z,578
2022-09-23T08:01:05.776Z,579
2022-09-23T08:06:23.932Z,579
2022-09-23T08:11:42.691Z,581
2022-09-23T08:17:01.425Z,579
2022-09-23T08:22:19.967Z,579
2022-09-23T08:27:38.184Z,579
2022-09-23T08:32:56.400Z,578
2022-09-23T08:38:14.656Z,581
2022-09-23T08:43:33.127Z,579
2022-09-23T08:48:51.349Z,576
2022-09-23T08:54:09.861Z,579
2022-09-23T08:59:28.593Z,577
2022-09-23T09:04:47.374Z,578
2022-09-23T09:10:05.300Z,573
2022-09-23T09:15:25.135Z,570
2022-09-23T09:20:43.740Z,569
2022-09-23T09:26:01.976Z,571
2022-09-23T09:31:20.761Z,570
2022-09-23T09:36:39.233Z,570
2022-09-23T09:41:57.835Z,569
2022-09-23T09:47:16.141Z,565
2022-09-23T09:52:37.673Z,569
2022-09-23T09:57:55.890Z,566
2022-09-23T10:03:14.097Z,565
2022-09-23T10:08:32.295Z,567
2022-09-23T10:13:50.255Z,565
2022-09-23T10:19:08.698Z,569
2022-09-23T10:24:26.958Z,568
2022-09-23T10:29:45.481Z,563
2022-09-23T10:35:03.963Z,560
2022-09-23T10:40:22.541Z,559
2022-09-23T10:45:42.629Z,560
2022-09-23T10:51:01.538Z,561
2022-09-23T10:56:20.326Z,556
2022-09-23T11:01:38.958Z,556
2022-09-23T11:06:57.685Z,554
2022-09-23T11:12:16.163Z,555
2022-09-23T11:17:34.653Z,556
2022-09-23T11:22:53.233Z,555
2022-09-23T11:28:11.752Z,559
2022-09-23T11:33:30.252Z,549
2022-09-23T11:38:48.448Z,552
2022-09-23T11:44:07.101Z,555
2022-09-23T11:49:25.236Z,548
2022-09-23T11:54:43.414Z,548
2022-09-23T12:00:01.343Z,546
2022-09-23T12:05:19.682Z,544
2022-09-23T12:10:38.329Z,543
2022-09-23T12:15:56.540Z,551
2022-09-23T12:21:32.979Z,555
2022-09-23T12:27:09.521Z,554
2022-09-23T12:32:28.008Z,558
2022-09-23T12:37:46.300Z,562
2022-09-23T12:43:04.853Z,563
2022-09-23T12:48:23.027Z,560
2022-09-23T12:53:41.819Z,562
2022-09-23T12:59:00.586Z,562
2022-09-23T13:04:18.777Z,561
2022-09-23T13:09:37.567Z,557
2022-09-23T13:14:56.014Z,555
2022-09-23T13:20:14.489Z,557
2022-09-23T13:25:33.012Z,555
2022-09-23T13:30:51.201Z,564
2022-09-23T13:36:09.761Z,570
2022-09-23T13:41:28.545Z,574
2022-09-23T13:46:46.736Z,574
2022-09-23T13:52:05.265Z,563
2022-09-23T13:57:24.072Z,559
2022-09-23T14:02:42.669Z,557
2022-09-23T14:08:00.871Z,559
2022-09-23T14:13:22.453Z,560
2022-09-23T14:18:44.230Z,559
2022-09-23T14:24:03.026Z,561
2022-09-23T14:29:21.632Z,557
2022-09-23T14:34:39.845Z,560
2022-09-23T14:39:58.398Z,559
2022-09-23T14:45:16.918Z,563
2022-09-23T14:50:35.833Z,558
2022-09-23T14:55:54.568Z,554
2022-09-23T15:01:12.832Z,560
2022-09-23T15:06:31.278Z,557
2022-09-23T15:11:50.046Z,557
2022-09-23T15:17:08.882Z,559
2022-09-23T15:22:27.061Z,560
2022-09-23T15:27:45.563Z,557
2022-09-23T15:33:04.354Z,564
2022-09-23T15:38:22.281Z,566
2022-09-23T15:43:40.730Z,573
2022-09-23T15:48:59.536Z,572
2022-09-23T15:54:18.365Z,573
2022-09-23T15:59:37.134Z,574
2022-09-23T16:04:55.658Z,576
2022-09-23T16:10:14.399Z,572
2022-09-23T16:15:32.872Z,574
2022-09-23T16:20:50.829Z,572
2022-09-23T16:26:08.996Z,573
2022-09-23T16:31:27.786Z,574
2022-09-23T16:36:46.172Z,576
2022-09-23T16:42:04.615Z,575
2022-09-23T16:47:22.845Z,572
2022-09-23T16:52:41.655Z,570
2022-09-23T16:57:59.931Z,570
2022-09-23T17:03:18.157Z,575
2022-09-23T17:08:36.349Z,570
2022-09-23T17:13:54.817Z,569
2022-09-23T17:19:13.306Z,569
2022-09-23T17:24:31.823Z,568
2022-09-23T17:29:50.569Z,566
2022-09-23T17:35:09.097Z,567
2022-09-23T17:40:27.621Z,562
2022-09-23T17:45:46.149Z,562
2022-09-23T17:51:04.439Z,561
2022-09-23T17:56:23.228Z,559
2022-09-23T18:01:41.323Z,561
2022-09-23T18:07:00.145Z,560
2022-09-23T18:12:18.915Z,557
2022-09-23T18:17:37.415Z,552
2022-09-23T18:22:55.875Z,554
2022-09-23T18:28:14.665Z,556
2022-09-23T18:33:33.427Z,554
2022-09-23T18:38:51.896Z,554
2022-09-23T18:44:10.429Z,557
2022-09-23T18:49:28.891Z,559
2022-09-23T18:54:49.094Z,553
2022-09-23T19:00:13.037Z,555
2022-09-23T19:05:31.788Z,552
2022-09-23T19:10:49.974Z,556
2022-09-23T19:16:08.881Z,553
2022-09-23T19:21:27.013Z,552
2022-09-23T19:26:45.229Z,552
2022-09-23T19:32:03.772Z,545
2022-09-23T19:37:22.315Z,549
2022-09-23T19:42:40.550Z,550
2022-09-23T19:47:59.020Z,547
2022-09-23T19:53:17.473Z,545
2022-09-23T19:58:36.272Z,544
2022-09-23T20:03:55.029Z,544
2022-09-23T20:09:13.229Z,546
2022-09-23T20:14:31.456Z,546
2022-09-23T20:19:49.658Z,550
2022-09-23T20:25:07.585Z,554
2022-09-23T20:30:26.321Z,551
2022-09-23T20:35:44.277Z,554
2022-09-23T20:41:03.019Z,554
2022-09-23T20:46:22.032Z,550
2022-09-23T20:51:40.585Z,551
2022-09-23T20:56:59.346Z,547
2022-09-23T21:02:17.910Z,550
2022-09-23T21:07:36.561Z,553
2022-09-23T21:12:55.052Z,556
2022-09-23T21:18:15.630Z,555
2022-09-23T21:23:40.753Z,553
2022-09-23T21:28:59.198Z,552
2022-09-23T21:34:17.396Z,551
2022-09-23T21:39:36.219Z,551
2022-09-23T21:44:54.905Z,546
2022-09-23T21:50:13.357Z,548
2022-09-23T21:55:31.895Z,545
2022-09-23T22:00:50.178Z,546
2022-09-23T22:06:09.028Z,545
2022-09-23T22:11:27.302Z,544
2022-09-23T22:16:45.526Z,544
2022-09-23T22:22:04.023Z,546
2022-09-23T22:27:22.825Z,548
2022-09-23T22:32:40.992Z,546
2022-09-23T22:37:59.363Z,547
2022-09-23T22:43:18.157Z,548
2022-09-23T22:48:36.607Z,546
2022-09-23T22:53:54.833Z,546
2022-09-23T22:59:13.388Z,546
2022-09-23T23:04:31.330Z,547
2022-09-23T23:09:49.828Z,546
2022-09-23T23:15:07.790Z,548
2022-09-23T23:20:25.963Z,545
2022-09-23T23:25:44.745Z,548
2022-09-23T23:31:03.655Z,546
2022-09-23T23:36:22.089Z,547
2022-09-23T23:41:40.555Z,546
2022-09-23T23:46:59.116Z,547
2022-09-23T23:52:17.595Z,543
2022-09-23T23:57:36.332Z,541
